Flight Track Log - Related Links

Times and Time Zones

All times are in EDT time to prevent confusion due to time zone crossing. See the F-GLZS flight status page for this flight to view local times or setup timezone preferences in your user account.

Time Position Orientation Groundspeed Altitude Reporting Facility
EDT Latitude Longitude Course Direction KTS MPH feet Rate Location/Type
Sun 09:56:02 AM 48.9959 2.5594 264° West 156 180 400  Level FlightAware ADS-B
Sun 09:56:17 AM 48.9949 2.5433 265° West 155 178 700 1,429 Climbing FlightAware ADS-B
Sun 09:56:23 AM 48.9945 2.5368 265° West 155 178 900 1,875 Climbing FlightAware ADS-B
Sun 09:56:33 AM 48.9940 2.5260 266° West 153 176 1,200 1,615 Climbing FlightAware ADS-B
Sun 09:56:49 AM 48.9933 2.5090 266° West 151 174 1,600 1,333 Climbing FlightAware ADS-B
Sun 09:57:00 AM 48.9927 2.4976 265° West 147 169 1,800 889 Climbing FlightAware ADS-B
Sun 09:57:16 AM 48.9917 2.4814 265° West 158 182 2,000 1,161 Climbing FlightAware ADS-B
Sun 09:57:31 AM 48.9904 2.4636 264° West 159 183 2,400 1,600 Climbing FlightAware ADS-B
Sun 09:57:46 AM 48.9891 2.4470 263° West 156 180 2,800 1,364 Climbing FlightAware ADS-B
Sun 09:57:53 AM 48.9886 2.4404 263° West 155 178 2,900 923 Climbing FlightAware ADS-B
Sun 09:57:59 AM 48.9882 2.4338 265° West 160 184 3,000 1,714 Climbing FlightAware ADS-B
Sun 09:58:07 AM 48.9876 2.4238 265° West 160 184 3,300 1,000 Climbing FlightAware ADS-B
Sun 09:58:23 AM 48.9869 2.4052 267° West 173 199 3,400 207 Climbing FlightAware ADS-B
Sun 09:58:36 AM 48.9863 2.3900 267° West 189 217 3,400  Level FlightAware ADS-B
Sun 09:58:52 AM 48.9850 2.3658 265° West 216 249 3,400 414 Level FlightAware ADS-B
Sun 09:59:05 AM 48.9839 2.3468 265° West 236 272 3,600 1,071 Climbing FlightAware ADS-B
Sun 09:59:20 AM 48.9825 2.3212 265° West 250 288 3,900 1,333 Climbing FlightAware ADS-B
Sun 09:59:32 AM 48.9814 2.2978 266° West 262 302 4,200 2,000 Climbing FlightAware ADS-B
Sun 09:59:47 AM 48.9803 2.2700 267° West 267 307 4,800 2,903 Climbing FlightAware ADS-B
Sun 10:00:03 AM 48.9786 2.2403 265° West 262 302 5,700 3,000 Climbing FlightAware ADS-B
Sun 10:00:19 AM 48.9769 2.2111 265° West 262 302 6,400 2,710 Climbing FlightAware ADS-B
Sun 10:00:34 AM 48.9753 2.1836 265° West 262 302 7,100 2,400 Climbing FlightAware ADS-B
Sun 10:00:39 AM 48.9746 2.1764 262° West 262 302 7,200 2,250 Climbing FlightAware ADS-B
Sun 10:00:42 AM 48.9733 2.1692 254° West 263 303 7,400 3,000 Climbing FlightAware ADS-B
Sun 10:00:45 AM 48.9719 2.1641 248° West 264 304 7,500 2,000 Climbing FlightAware ADS-B
Sun 10:00:48 AM 48.9702 2.1592 242° Southwest 266 306 7,600 2,000 Climbing FlightAware ADS-B
Sun 10:00:51 AM 48.9682 2.1545 237° Southwest 266 306 7,700 1,714 Climbing FlightAware ADS-B
Sun 10:00:55 AM 48.9659 2.1501 231° Southwest 267 307 7,800 2,571 Climbing FlightAware ADS-B
Sun 10:00:58 AM 48.9633 2.1461 226° Southwest 269 310 8,000 2,571 Climbing FlightAware ADS-B
Sun 10:01:02 AM 48.9595 2.1412 220° Southwest 271 312 8,100 1,714 Climbing FlightAware ADS-B
Sun 10:01:05 AM 48.9563 2.1380 213° Southwest 273 314 8,200 1,714 Climbing FlightAware ADS-B
Sun 10:01:09 AM 48.9518 2.1344 207° Southwest 276 318 8,300 2,250 Climbing FlightAware ADS-B
Sun 10:01:13 AM 48.9471 2.1316 202° Southwest 278 320 8,500 2,100 Climbing FlightAware ADS-B
Sun 10:01:29 AM 48.9272 2.1222 197° South 284 327 9,000 2,323 Climbing FlightAware ADS-B
Sun 10:01:44 AM 48.9084 2.1135 197° South 284 327 9,700 2,400 Climbing FlightAware ADS-B
Sun 10:02:14 AM 48.8689 2.0949 197° South 290 334 10,800 2,270 Climbing FlightAware ADS-B
Sun 10:02:58 AM 48.8135 2.0687 197° South 292 336 12,500 529 Climbing FlightAware ADS-B
Sun 10:03:22 AM 48.7804 2.0545 197° South 322 371 11,400 -1,000 Descending FlightAware UK
Sun 10:03:40 AM 48.7553 2.0414 199° South 334 384 11,800 4,714 Climbing FlightAware UK
Sun 10:03:50 AM 48.7423 2.0353 199° South 326 375 13,600 1,800 Climbing FlightAware ADS-B
Sun 10:04:10 AM 48.7126 2.0238 199° South 342 394 12,700 1,935 Descending FlightAware UK
Sun 10:04:21 AM 48.6971 2.0142 199° South 334 384 14,600 1,857 Climbing FlightAware ADS-B
Sun 10:04:52 AM 48.6483 1.9960 199° South 352 405 14,000 1,765 Descending FlightAware UK
Sun 10:05:12 AM 48.6270 2.0100 199° South 347 399 16,100 2,167 Climbing FlightAware ADS-B
Sun 10:05:28 AM 48.5929 2.0328 199° South 356 410 15,300 1,800 Descending FlightAware UK
Sun 10:05:52 AM 48.5690 2.0410 199° South 351 404 17,300 3,545 Climbing FlightAware ADS-B
Sun 10:06:12 AM 48.5460 2.0370 187° South 345 397 17,900 1,800 Climbing FlightAware ADS-B
Sun 10:06:52 AM 48.4840 2.0160 193° South 351 404 19,100 1,760 Climbing FlightAware ADS-B
Sun 10:07:27 AM 48.4250 2.0000 190° South 358 412 20,100 1,740 Climbing FlightAware ADS-B
Sun 10:08:32 AM 48.3140 1.9700 190° South 368 423 22,000 1,314 Climbing FlightAware ADS-B
Sun 10:09:12 AM 48.2440 1.9510 190° South 393 452 22,400 918 Climbing FlightAware ADS-B
Sun 10:09:57 AM 48.1640 1.9300 190° South 406 467 23,300 1,271 Climbing FlightAware ADS-B
Sun 10:10:37 AM 48.0890 1.9100 190° South 415 478 24,200 1,950 Climbing FlightAware ADS-B
Sun 10:11:17 AM 48.0180 1.8910 190° South 397 457 25,900 1,680 Climbing FlightAware ADS-B
Sun 10:11:52 AM 47.9530 1.8740 190° South 410 472 26,300 1,412 Climbing FlightAware ADS-B
Sun 10:12:42 AM 47.8630 1.8500 190° South 399 459 27,900 1,642 Climbing FlightAware ADS-B
Sun 10:13:27 AM 47.7800 1.8280 190° South 399 459 28,900 918 Climbing FlightAware ADS-B
Sun 10:14:07 AM 47.6980 1.8060 190° South 417 480 29,200 320 Climbing FlightAware ADS-B
Sun 10:14:42 AM 47.6380 1.7910 190° South 429 494 29,300 282 Climbing FlightAware ADS-B
Sun 10:15:32 AM 47.5350 1.7640 190° South 452 520 29,600 400 Climbing FlightAware ADS-B
Sun 10:16:12 AM 47.4490 1.7410 190° South 467 537 29,900 375 Climbing FlightAware ADS-B
Sun 10:16:52 AM 47.3490 1.7160 190° South 475 547 30,100 353 Climbing FlightAware ADS-B
Sun 10:17:37 AM 47.2510 1.6900 190° South 488 562 30,400 1,341 Climbing FlightAware ADS-B
Sun 10:18:17 AM 47.1550 1.6650 190° South 476 548 32,000 2,000 Climbing FlightAware ADS-B
Sun 10:18:52 AM 47.0850 1.6470 190° South 460 529 32,900 600 Climbing FlightAware ADS-B
Sun 10:19:57 AM 46.9510 1.6130 190° South 473 544 33,000 52 Climbing FlightAware ADS-B
Sun 10:20:47 AM 46.8410 1.5850 190° South 473 544 33,000  Level FlightAware ADS-B
Sun 10:21:27 AM 46.7510 1.5620 190° South 473 544 33,000  Level FlightAware ADS-B
Sun 10:22:17 AM 46.6440 1.5350 190° South 473 544 33,000  Level FlightAware ADS-B
Sun 10:22:57 AM 46.5520 1.5120 190° South 474 545 33,000  Level FlightAware ADS-B
Sun 10:23:52 AM 46.4380 1.4830 190° South 475 547 33,000  Level FlightAware ADS-B
Sun 10:24:37 AM 46.3300 1.4560 190° South 476 548 33,000  Level FlightAware ADS-B
Sun 10:25:12 AM 46.2590 1.4390 189° South 476 548 33,000  Level FlightAware ADS-B
Sun 10:25:52 AM 46.1600 1.4140 190° South 484 557 33,000  Level FlightAware ADS-B
Sun 10:26:37 AM 46.0630 1.3900 190° South 486 559 33,000  Level FlightAware ADS-B
Sun 10:27:37 AM 45.9310 1.3580 190° South 487 560 33,000  Level FlightAware ADS-B
Sun 10:28:17 AM 45.8560 1.3410 189° South 487 560 33,000  Level FlightAware ADS-B
Sun 10:29:07 AM 45.7300 1.3090 190° South 486 559 33,000  Level FlightAware ADS-B
Sun 10:29:57 AM 45.6140 1.2800 190° South 488 562 33,000  Level FlightAware ADS-B
Sun 10:30:37 AM 45.5300 1.2590 190° South 489 563 33,000  Level FlightAware ADS-B
Sun 10:31:17 AM 45.4380 1.2370 190° South 489 563 33,000  Level FlightAware ADS-B
Sun 10:32:02 AM 45.3420 1.2140 190° South 488 562 33,000  Level FlightAware ADS-B
Sun 10:32:47 AM 45.2400 1.1880 190° South 487 560 33,000  Level FlightAware ADS-B
Sun 10:33:27 AM 45.1520 1.1650 190° South 489 563 33,000  Level FlightAware ADS-B
Sun 10:34:07 AM 45.0650 1.1420 191° South 490 564 33,000  Level FlightAware ADS-B
Sun 10:34:52 AM 44.9640 1.1160 190° South 491 565 33,000  Level FlightAware ADS-B
Sun 10:35:27 AM 44.8860 1.0970 190° South 490 564 33,000  Level FlightAware ADS-B
Sun 10:36:17 AM 44.7660 1.0660 190° South 489 563 33,000  Level FlightAware ADS-B
Sun 10:36:57 AM 44.6810 1.0450 190° South 489 563 33,000  Level FlightAware ADS-B
Sun 10:37:42 AM 44.5760 1.0180 190° South 495 570 33,000  Level FlightAware ADS-B
Sun 10:38:22 AM 44.4870 0.9960 190° South 503 579 33,000  Level FlightAware ADS-B
Sun 10:39:07 AM 44.3860 0.9710 190° South 502 578 33,000  Level FlightAware ADS-B
Sun 10:39:47 AM 44.2950 0.9480 190° South 500 575 33,000  Level FlightAware ADS-B
Sun 10:40:27 AM 44.2040 0.9250 190° South 499 574 33,000  Level FlightAware ADS-B
Sun 10:41:07 AM 44.1080 0.9010 190° South 500 575 33,000  Level FlightAware ADS-B
Sun 10:41:52 AM 44.0060 0.8760 190° South 501 577 33,000  Level FlightAware ADS-B
Sun 10:42:32 AM 43.9170 0.8540 190° South 499 574 33,000  Level FlightAware ADS-B
Sun 10:43:17 AM 43.8170 0.8290 190° South 498 573 33,000  Level FlightAware ADS-B
Sun 10:43:57 AM 43.7260 0.8070 190° South 499 574 33,000  Level FlightAware ADS-B
Sun 10:44:42 AM 43.6210 0.7810 190° South 499 574 33,000  Level FlightAware ADS-B
Sun 10:45:22 AM 43.5300 0.7590 190° South 498 573 33,000  Level FlightAware ADS-B
Sun 10:46:02 AM 43.4400 0.7370 190° South 498 573 33,000  Level FlightAware ADS-B
Sun 10:46:47 AM 43.3400 0.7130 190° South 498 573 33,000  Level FlightAware ADS-B
Sun 10:47:27 AM 43.2510 0.6920 190° South 498 573 33,000  Level FlightAware ADS-B
Sun 10:48:12 AM 43.1450 0.6660 190° South 498 573 33,000  Level FlightAware ADS-B
Sun 10:48:52 AM 43.0540 0.6440 190° South 497 572 33,000  Level FlightAware ADS-B
Sun 10:49:32 AM 42.9630 0.6230 190° South 497 572 33,000  Level FlightAware ADS-B
Sun 10:50:17 AM 42.8620 0.5980 190° South 494 568 33,000  Level FlightAware ADS-B
Sun 10:50:57 AM 42.7740 0.5780 189° South 493 567 33,000  Level FlightAware ADS-B
Sun 10:51:42 AM 42.6710 0.5530 190° South 492 566 33,000  Level FlightAware ADS-B
Sun 10:52:22 AM 42.5790 0.5290 191° South 493 567 33,000  Level FlightAware ADS-B
Sun 10:52:52 AM 42.5140 0.5120 191° South 493 567 33,000  Level FlightAware ADS-B
Sun 10:53:47 AM 42.3900 0.4810 190° South 494 568 33,000 316 Level FlightAware ADS-B
Sun 10:54:27 AM 42.3030 0.4580 191° South 493 567 33,500 1,125 Climbing FlightAware ADS-B
Sun 10:55:07 AM 42.2110 0.4350 190° South 483 556 34,500 1,059 Climbing FlightAware ADS-B
Sun 10:55:52 AM 42.1130 0.4100 191° South 481 554 35,000 353 Climbing FlightAware ADS-B
Sun 10:56:32 AM 42.0260 0.3880 191° South 479 551 35,000  Level FlightAware ADS-B
Sun 10:57:17 AM 41.9280 0.3630 191° South 479 551 35,000  Level FlightAware ADS-B
Sun 10:57:57 AM 41.8410 0.3420 190° South 479 551 35,000  Level FlightAware ADS-B
Sun 10:58:42 AM 41.7450 0.3180 191° South 480 552 35,000  Level FlightAware ADS-B
Sun 10:59:22 AM 41.6550 0.2950 191° South 480 552 35,000  Level FlightAware ADS-B
Sun 11:00:02 AM 41.5700 0.2740 190° South 482 555 35,000  Level FlightAware ADS-B
Sun 11:00:47 AM 41.4710 0.2500 190° South 482 555 35,000  Level FlightAware ADS-B
Sun 11:01:27 AM 41.3840 0.2280 191° South 484 557 35,000  Level FlightAware ADS-B
Sun 11:02:07 AM 41.2960 0.2060 191° South 484 557 35,000  Level FlightAware ADS-B
Sun 11:02:52 AM 41.1940 0.1810 190° South 482 555 35,000  Level FlightAware ADS-B
Sun 11:03:32 AM 41.1080 0.1560 192° South 478 550 35,000  Level FlightAware ADS-B
Sun 11:04:17 AM 41.0150 0.1190 197° South 475 547 35,000  Level FlightAware ADS-B
Sun 11:04:57 AM 40.9310 0.0850 197° South 474 545 35,000  Level FlightAware ADS-B
Sun 11:05:37 AM 40.8450 0.0500 197° South 474 545 35,000  Level FlightAware ADS-B
Sun 11:06:22 AM 40.7480 0.0120 197° South 475 547 35,000  Level FlightAware ADS-B
Sun 11:07:02 AM 40.6660 -0.0210 197° South 473 544 35,000  Level FlightAware ADS-B
Sun 11:07:47 AM 40.5740 -0.0580 197° South 473 544 35,000  Level FlightAware ADS-B
Sun 11:08:27 AM 40.4900 -0.0910 197° South 470 541 35,000  Level FlightAware ADS-B
Sun 11:09:07 AM 40.4050 -0.1240 196° South 468 539 35,000  Level FlightAware ADS-B
Sun 11:09:52 AM 40.3160 -0.1600 197° South 471 542 35,000  Level FlightAware ADS-B
Sun 11:10:32 AM 40.2280 -0.1940 196° South 472 543 35,000  Level FlightAware ADS-B
Sun 11:11:17 AM 40.1340 -0.2310 197° South 471 542 35,000  Level FlightAware ADS-B
Sun 11:11:57 AM 40.0530 -0.2630 197° South 466 536 35,000  Level FlightAware ADS-B
Sun 11:12:37 AM 39.9680 -0.2960 197° South 465 535 35,000  Level FlightAware ADS-B
Sun 11:13:12 AM 39.8940 -0.3250 197° South 468 539 35,000  Level FlightAware ADS-B
Sun 11:13:57 AM 39.8040 -0.3600 197° South 475 547 35,000  Level FlightAware ADS-B
Sun 11:14:37 AM 39.7200 -0.3930 197° South 472 543 35,000  Level FlightAware ADS-B
Sun 11:15:17 AM 39.6360 -0.4250 196° South 472 543 35,000  Level FlightAware ADS-B
Sun 11:16:02 AM 39.5380 -0.4590 195° South 480 552 35,000  Level FlightAware ADS-B
Sun 11:16:42 AM 39.4470 -0.4690 185° South 491 565 35,000  Level FlightAware ADS-B
Sun 11:17:27 AM 39.3490 -0.4580 175° South 495 570 35,000  Level FlightAware ADS-B
Sun 11:18:07 AM 39.2560 -0.4420 172° South 495 570 35,000  Level FlightAware ADS-B
Sun 11:18:47 AM 39.1650 -0.4250 172° South 496 571 35,000  Level FlightAware ADS-B
Sun 11:19:32 AM 39.0760 -0.4090 172° South 498 573 35,000  Level FlightAware ADS-B
Sun 11:20:07 AM 38.9870 -0.3930 172° South 497 572 35,000  Level FlightAware ADS-B
Sun 11:20:57 AM 38.8680 -0.3720 172° South 495 570 35,000  Level FlightAware ADS-B
Sun 11:21:37 AM 38.7750 -0.3560 172° South 493 567 35,000  Level FlightAware ADS-B
Sun 11:22:22 AM 38.6760 -0.3380 172° South 490 564 35,000  Level FlightAware ADS-B
Sun 11:23:02 AM 38.5910 -0.3220 172° South 494 568 35,000  Level FlightAware ADS-B
Sun 11:23:42 AM 38.4980 -0.3060 172° South 494 568 35,000  Level FlightAware ADS-B
Sun 11:24:27 AM 38.4010 -0.2890 172° South 492 566 35,000  Level FlightAware ADS-B
Sun 11:25:07 AM 38.3040 -0.2720 172° South 483 556 35,000  Level FlightAware ADS-B
Sun 11:25:47 AM 38.2230 -0.2570 172° South 490 564 35,000  Level FlightAware ADS-B
Sun 11:26:32 AM 38.1130 -0.2380 172° South 483 556 35,000  Level FlightAware ADS-B
Sun 11:27:42 AM 37.9550 -0.2100 172° South 489 563 35,000  Level FlightAware ADS-B
Sun 11:28:52 AM 37.7980 -0.1830 172° South 489 563 35,000  Level FlightAware ADS-B
Sun 11:30:02 AM 37.6410 -0.1550 172° South 490 564 35,000  Level FlightAware ADS-B
Sun 11:31:12 AM 37.4860 -0.1290 172° South 490 564 35,000  Level FlightAware ADS-B
Sun 11:32:22 AM 37.3280 -0.1010 172° South 484 557 35,000  Level FlightAware ADS-B
Sun 11:33:32 AM 37.1700 -0.0740 172° South 486 559 35,000 141 Level FlightAware ADS-B
Sun 11:35:12 AM 36.9510 -0.0220 169° South 503 579 35,400 462 Climbing FlightAware ADS-B
Sun 11:35:42 AM 36.8850 0.0020 164° South 484 557 36,000 450 Climbing FlightAware ADS-B
Sun 11:36:32 AM 36.7750 0.0400 165° South 489 563 36,000  Level FlightAware ADS-B
Sun 11:37:07 AM 36.6950 0.0680 164° South 488 562 36,000  Level FlightAware ADS-B
Sun 11:37:57 AM 36.5870 0.1060 164° South 489 563 36,000  Level FlightAware ADS-B
Sun 11:38:52 AM 36.4670 0.1480 164° South 497 572 36,000  Level FlightAware ADS-B
Sun 11:39:32 AM 36.3740 0.1810 164° South 489 563 36,000  Level FlightAware ADS-B
Sun 11:40:17 AM 36.2840 0.2120 164° South 487 560 36,000  Level FlightAware ADS-B
Sun 11:40:52 AM 36.2120 0.2380 164° South 487 560 36,000  Level FlightAware ADS-B
Sun 11:41:37 AM 36.1090 0.2730 165° South 486 559 36,000  Level FlightAware ADS-B
Sun 11:42:17 AM 36.2310 0.2310 344° North 496 571 36,000  Level FlightAware ADS-B
Sun 11:42:57 AM 35.9260 0.3360 164° South 488 562 36,000  Level FlightAware ADS-B
Sun 11:43:47 AM 35.8180 0.3730 164° South 487 560 36,000  Level FlightAware ADS-B
Sun 11:44:22 AM 35.7390 0.4000 164° South 488 562 36,000  Level FlightAware ADS-B
Sun 11:45:07 AM 35.6430 0.4330 164° South 481 554 36,000  Level FlightAware ADS-B
Sun 11:45:47 AM 35.5580 0.4620 164° South 482 555 36,000  Level FlightAware ADS-B
Sun 11:46:32 AM 35.4550 0.4970 165° South 483 556 36,000  Level FlightAware ADS-B
Sun 11:47:32 AM 35.3240 0.5420 164° South 483 556 36,000  Level FlightAware ADS-B
Sun 11:48:22 AM 35.2230 0.5770 164° South 483 556 36,000  Level FlightAware ADS-B
Sun 11:49:02 AM 35.1500 0.6030 164° South 483 556 36,000  Level FlightAware ADS-B
Sun 11:49:42 AM 35.0770 0.6280 164° South 483 556 36,000  Level FlightAware ADS-B
Sun 11:50:32 AM 34.9850 0.6600 164° South 483 556 36,000  Level FlightAware ADS-B
Sun 11:51:12 AM 34.8500 0.7030 165° South 496 571 36,000  Level FlightAware ADS-B
Sun 11:51:52 AM 34.7520 0.7360 165° South 499 574 36,000  Level FlightAware ADS-B
Sun 11:52:32 AM 34.6760 0.7620 164° South 499 574 36,000  Level FlightAware ADS-B
Sun 11:53:12 AM 34.6010 0.7880 164° South 499 574 36,000  Level FlightAware ADS-B
Sun 11:54:02 AM 34.5070 0.8210 164° South 499 574 36,000  Level FlightAware ADS-B
Sun 11:54:42 AM 34.4310 0.8470 164° South 499 574 36,000  Level FlightAware ADS-B
Sun 11:55:22 AM 34.3560 0.8730 164° South 499 574 36,000  Level FlightAware ADS-B
Sun 11:56:02 AM 34.2800 0.9000 164° South 499 574 36,000  Level FlightAware ADS-B
Sun 11:56:52 AM 34.1000 0.9520 167° South 483 556 36,000  Level FlightAware ADS-B
Sun 11:57:32 AM 34.0260 0.9780 164° South 483 556 36,000  Level FlightAware ADS-B
Sun 11:58:12 AM 33.9530 1.0030 164° South 483 556 36,000  Level FlightAware ADS-B
Sun 11:58:52 AM 33.8800 1.0280 164° South 483 556 36,000  Level FlightAware ADS-B
Sun 11:59:42 AM 33.7890 1.0600 164° South 483 556 36,000  Level FlightAware ADS-B
Sun 12:00:22 PM 33.7160 1.0850 164° South 483 556 36,000  Level FlightAware ADS-B
Sun 12:01:02 PM 33.6430 1.1100 164° South 483 556 36,000  Level FlightAware ADS-B
Sun 12:01:42 PM 33.5700 1.1350 164° South 483 556 36,000  Level FlightAware ADS-B
Sun 12:02:22 PM 33.4970 1.1600 164° South 483 556 36,000  Level FlightAware ADS-B
Sun 12:03:12 PM 33.4060 1.1920 164° South 483 556 36,000  Level FlightAware ADS-B
Sun 12:03:52 PM 33.3330 1.2170 164° South 483 556 36,000  Level FlightAware ADS-B
Sun 12:04:32 PM 33.2600 1.2420 164° South 483 556 36,000  Level FlightAware ADS-B
Sun 12:05:12 PM 33.1870 1.2670 164° South 483 556 36,000  Level FlightAware ADS-B
Sun 12:05:52 PM 33.1140 1.2920 164° South 483 556 36,000  Level FlightAware ADS-B
Sun 12:08:00 PM 32.8665 1.3053 177° South  Level Estimated
Sun 12:09:00 PM 32.7505 1.3115 177° South  Level Estimated
Sun 12:10:00 PM 32.6345 1.3176 177° South  Level Estimated
Sun 12:11:00 PM 32.5184 1.3238 177° South  Level Estimated
Sun 12:12:00 PM 32.4024 1.3300 177° South  Level Estimated
Sun 12:13:00 PM 32.2864 1.3361 177° South  Level Estimated
Sun 12:14:00 PM 32.1704 1.3422 177° South  Level Estimated
Sun 12:15:00 PM 32.0544 1.3483 177° South  Level Estimated
Sun 12:16:00 PM 31.9383 1.3544 177° South  Level Estimated
Sun 12:17:00 PM 31.8223 1.3605 177° South  Level Estimated
Sun 12:18:00 PM 31.7063 1.3665 177° South  Level Estimated
Sun 12:19:00 PM 31.5903 1.3726 177° South  Level Estimated
Sun 12:20:00 PM 31.4743 1.3786 177° South  Level Estimated
Sun 12:21:00 PM 31.3582 1.3846 177° South  Level Estimated
Sun 12:22:00 PM 31.2422 1.3906 177° South  Level Estimated
Sun 12:23:00 PM 31.1262 1.3966 177° South  Level Estimated
Sun 12:24:00 PM 31.0102 1.4026 177° South  Level Estimated
Sun 12:25:00 PM 30.8942 1.4085 177° South  Level Estimated
Sun 12:26:00 PM 30.7781 1.4145 177° South  Level Estimated
Sun 12:27:00 PM 30.6621 1.4204 177° South  Level Estimated
Sun 12:28:00 PM 30.5461 1.4263 177° South  Level Estimated
Sun 12:29:00 PM 30.4301 1.4322 177° South  Level Estimated
Sun 12:30:00 PM 30.3141 1.4381 177° South  Level Estimated
Sun 12:31:00 PM 30.1980 1.4439 177° South  Level Estimated
Sun 12:32:00 PM 30.0820 1.4498 178° South  Level Estimated
Sun 12:33:00 PM 29.9660 1.4556 178° South  Level Estimated
Sun 12:34:00 PM 29.8500 1.4614 178° South  Level Estimated
Sun 12:35:00 PM 29.7340 1.4672 178° South  Level Estimated
Sun 12:36:00 PM 29.6179 1.4730 178° South  Level Estimated
Sun 12:37:00 PM 29.5019 1.4788 178° South  Level Estimated
Sun 12:38:00 PM 29.3859 1.4846 178° South  Level Estimated
Sun 12:39:00 PM 29.2699 1.4904 178° South  Level Estimated
Sun 12:40:00 PM 29.1538 1.4961 178° South  Level Estimated
Sun 12:41:00 PM 29.0378 1.5019 178° South  Level Estimated
Sun 12:42:00 PM 28.9218 1.5076 178° South  Level Estimated
Sun 12:43:00 PM 28.8057 1.5133 178° South  Level Estimated
Sun 12:44:00 PM 28.6897 1.5190 178° South  Level Estimated
Sun 12:45:00 PM 28.5737 1.5246 178° South  Level Estimated
Sun 12:46:00 PM 28.4576 1.5303 178° South  Level Estimated
Sun 12:47:00 PM 28.3416 1.5360 178° South  Level Estimated
Sun 12:48:00 PM 28.2256 1.5416 178° South  Level Estimated
Sun 12:49:00 PM 28.1096 1.5473 178° South  Level Estimated
Sun 12:50:00 PM 27.9935 1.5529 178° South  Level Estimated
Sun 12:51:00 PM 27.8775 1.5585 178° South  Level Estimated
Sun 12:52:00 PM 27.7615 1.5641 178° South  Level Estimated
Sun 12:53:00 PM 27.6454 1.5697 178° South  Level Estimated
Sun 12:54:00 PM 27.5294 1.5752 178° South  Level Estimated
Sun 12:55:00 PM 27.4134 1.5808 178° South  Level Estimated
Sun 12:56:00 PM 27.2973 1.5863 178° South  Level Estimated
Sun 12:57:00 PM 27.1813 1.5919 178° South  Level Estimated
Sun 12:58:00 PM 27.0653 1.5974 178° South  Level Estimated
Sun 12:59:00 PM 26.9493 1.6029 178° South  Level Estimated
Sun 01:00:00 PM 26.8332 1.6084 178° South  Level Estimated
Sun 01:01:00 PM 26.7172 1.6139 178° South  Level Estimated
Sun 01:02:00 PM 26.6012 1.6194 178° South  Level Estimated
Sun 01:03:00 PM 26.4851 1.6249 178° South  Level Estimated
Sun 01:04:00 PM 26.3691 1.6303 178° South  Level Estimated
Sun 01:05:00 PM 26.2531 1.6358 178° South  Level Estimated
Sun 01:06:00 PM 26.1371 1.6412 178° South  Level Estimated
Sun 01:07:00 PM 26.0210 1.6466 178° South  Level Estimated
Sun 01:08:00 PM 25.9050 1.6521 178° South  Level Estimated
Sun 01:09:00 PM 25.7890 1.6575 178° South  Level Estimated
Sun 01:10:00 PM 25.6729 1.6629 178° South  Level Estimated
Sun 01:11:00 PM 25.5569 1.6682 178° South  Level Estimated
Sun 01:12:00 PM 25.4409 1.6736 178° South  Level Estimated
Sun 01:13:00 PM 25.3248 1.6790 178° South  Level Estimated
Sun 01:14:00 PM 25.2088 1.6843 178° South  Level Estimated
Sun 01:15:00 PM 25.0928 1.6897 178° South  Level Estimated
Sun 01:16:00 PM 24.9767 1.6950 178° South  Level Estimated
Sun 01:17:00 PM 24.8607 1.7003 178° South  Level Estimated
Sun 01:18:00 PM 24.7447 1.7056 178° South  Level Estimated
Sun 01:19:00 PM 24.6287 1.7109 178° South  Level Estimated
Sun 01:20:00 PM 24.5126 1.7162 178° South  Level Estimated
Sun 01:21:00 PM 24.3966 1.7215 178° South  Level Estimated
Sun 01:22:00 PM 24.2806 1.7268 178° South  Level Estimated
Sun 01:23:00 PM 24.1645 1.7320 178° South  Level Estimated
Sun 01:24:00 PM 24.0485 1.7373 178° South  Level Estimated
Sun 01:25:00 PM 23.9325 1.7425 178° South  Level Estimated
Sun 01:26:00 PM 23.8164 1.7477 178° South  Level Estimated
Sun 01:27:00 PM 23.7004 1.7530 178° South  Level Estimated
Sun 01:28:00 PM 23.5844 1.7582 178° South  Level Estimated
Sun 01:29:00 PM 23.4683 1.7634 178° South  Level Estimated
Sun 01:30:00 PM 23.3523 1.7686 178° South  Level Estimated
Sun 01:31:00 PM 23.2362 1.7738 178° South  Level Estimated
Sun 01:32:00 PM 23.1202 1.7790 178° South  Level Estimated
Sun 01:33:00 PM 23.0042 1.7841 178° South  Level Estimated
Sun 01:34:00 PM 22.8881 1.7893 178° South  Level Estimated
Sun 01:35:00 PM 22.7721 1.7945 178° South  Level Estimated
Sun 01:36:00 PM 22.6560 1.7996 178° South  Level Estimated
Sun 01:37:00 PM 22.5400 1.8047 178° South  Level Estimated
Sun 01:38:00 PM 22.4240 1.8099 178° South  Level Estimated
Sun 01:39:00 PM 22.3079 1.8150 178° South  Level Estimated
Sun 01:40:00 PM 22.1919 1.8201 178° South  Level Estimated
Sun 01:41:00 PM 22.0758 1.8252 178° South  Level Estimated
Sun 01:42:00 PM 21.9598 1.8303 178° South  Level Estimated
Sun 01:43:00 PM 21.8438 1.8354 178° South  Level Estimated
Sun 01:44:00 PM 21.7277 1.8405 178° South  Level Estimated
Sun 01:45:00 PM 21.6117 1.8455 178° South  Level Estimated
Sun 01:46:00 PM 21.4956 1.8506 178° South  Level Estimated
Sun 01:47:00 PM 21.3796 1.8556 178° South  Level Estimated
Sun 01:48:00 PM 21.2635 1.8607 178° South  Level Estimated
Sun 01:49:00 PM 21.1475 1.8657 178° South  Level Estimated
Sun 01:50:00 PM 21.0315 1.8707 178° South  Level Estimated
Sun 01:51:00 PM 20.9154 1.8758 178° South  Level Estimated
Sun 01:52:00 PM 20.7994 1.8808 178° South  Level Estimated
Sun 01:53:00 PM 20.6833 1.8858 178° South  Level Estimated
Sun 01:54:00 PM 20.5673 1.8908 178° South  Level Estimated
Sun 01:55:00 PM 20.4513 1.8958 178° South  Level Estimated
Sun 01:56:00 PM 20.3352 1.9008 178° South  Level Estimated
Sun 01:57:00 PM 20.2192 1.9057 178° South  Level Estimated
Sun 01:58:00 PM 20.1031 1.9107 178° South  Level Estimated
Sun 01:59:00 PM 19.9871 1.9157 178° South  Level Estimated
Sun 02:00:00 PM 19.8711 1.9206 178° South  Level Estimated
Sun 02:01:00 PM 19.7550 1.9256 178° South  Level Estimated
Sun 02:02:00 PM 19.6390 1.9305 178° South  Level Estimated
Sun 02:03:00 PM 19.5229 1.9354 178° South  Level Estimated
Sun 02:04:00 PM 19.4069 1.9404 178° South  Level Estimated
Sun 02:05:00 PM 19.2909 1.9453 178° South  Level Estimated
Sun 02:06:00 PM 19.1748 1.9502 178° South  Level Estimated
Sun 02:07:00 PM 19.0588 1.9551 178° South  Level Estimated
Sun 02:08:00 PM 18.9428 1.9600 178° South  Level Estimated
Sun 02:09:00 PM 18.8267 1.9649 178° South  Level Estimated
Sun 02:10:00 PM 18.7107 1.9698 178° South  Level Estimated
Sun 02:11:00 PM 18.5946 1.9746 178° South  Level Estimated
Sun 02:12:00 PM 18.4786 1.9795 178° South  Level Estimated
Sun 02:13:00 PM 18.3626 1.9844 178° South  Level Estimated
Sun 02:14:00 PM 18.2465 1.9892 178° South  Level Estimated
Sun 02:15:00 PM 18.1305 1.9941 178° South  Level Estimated
Sun 02:16:00 PM 18.0144 1.9989 178° South  Level Estimated
Sun 02:17:00 PM 17.8984 2.0038 178° South  Level Estimated
Sun 02:18:00 PM 17.7824 2.0086 178° South  Level Estimated
Sun 02:19:00 PM 17.6663 2.0134 178° South  Level Estimated
Sun 02:20:00 PM 17.5503 2.0182 178° South  Level Estimated
Sun 02:21:00 PM 17.4342 2.0230 178° South  Level Estimated
Sun 02:22:00 PM 17.3182 2.0278 178° South  Level Estimated
Sun 02:23:00 PM 17.2022 2.0326 178° South  Level Estimated
Sun 02:24:00 PM 17.0861 2.0374 178° South  Level Estimated
Sun 02:25:00 PM 16.9701 2.0422 178° South  Level Estimated
Sun 02:26:00 PM 16.8540 2.0470 178° South  Level Estimated
Sun 02:27:00 PM 16.7380 2.0518 178° South  Level Estimated
Sun 02:28:00 PM 16.6220 2.0566 178° South  Level Estimated
Sun 02:29:00 PM 16.5059 2.0613 178° South  Level Estimated
Sun 02:30:00 PM 16.3899 2.0661 178° South  Level Estimated
Sun 02:31:00 PM 16.2738 2.0708 178° South  Level Estimated
Sun 02:32:00 PM 16.1578 2.0756 178° South  Level Estimated
Sun 02:33:00 PM 16.0417 2.0803 178° South  Level Estimated
Sun 02:34:00 PM 15.9257 2.0851 178° South  Level Estimated
Sun 02:35:00 PM 15.8097 2.0898 178° South  Level Estimated
Sun 02:36:00 PM 15.6936 2.0945 178° South  Level Estimated
Sun 02:37:00 PM 15.5776 2.0992 178° South  Level Estimated
Sun 02:38:00 PM 15.4615 2.1039 178° South  Level Estimated
Sun 02:39:00 PM 15.3470 2.1086 178° South  Level Estimated
Sun 02:40:00 PM 15.2324 2.1132 178° South  Level Estimated
Sun 02:41:00 PM 15.1179 2.1179 178° South  Level Estimated
Sun 02:42:00 PM 15.0033 2.1225 178° South  Level Estimated
Sun 02:43:00 PM 14.8888 2.1271 178° South  Level Estimated
Sun 02:44:00 PM 14.7742 2.1318 178° South  Level Estimated
Sun 02:45:00 PM 14.6597 2.1364 178° South  Level Estimated
Sun 02:46:00 PM 14.5451 2.1410 178° South  Level Estimated
Sun 02:47:00 PM 14.4306 2.1456 178° South  Level Estimated
Sun 02:48:00 PM 14.3160 2.1502 178° South  Level Estimated
Sun 02:49:00 PM 14.2015 2.1548 178° South  Level Estimated
Sun 02:50:00 PM 14.0869 2.1594 178° South  Level Estimated
Sun 02:51:00 PM 13.9724 2.1640 178° South  Level Estimated
Sun 02:52:00 PM 13.8578 2.1686 178° South  Level Estimated
Sun 02:53:00 PM 13.7433 2.1732 178° South  Level Estimated

Login

Don't have an account? Register now (free) for customized features, flight alerts, and more!